createdAt,value
2017-07-18T00:01:08.260Z,97473.41
2017-07-18T00:05:55.637Z,97467.19
2017-07-18T00:10:42.275Z,97470.25
2017-07-18T00:15:28.999Z,97474.41
2017-07-18T00:20:15.656Z,97468.81
2017-07-18T00:25:02.429Z,97462.52
2017-07-18T00:29:49.039Z,97465.64
2017-07-18T00:34:35.657Z,97464.30
2017-07-18T00:39:22.254Z,97458.75
2017-07-18T00:44:09.614Z,97460.59
2017-07-18T00:48:56.295Z,97455.39
2017-07-18T00:53:43.702Z,97450.90
2017-07-18T00:58:30.351Z,97456.17
2017-07-18T01:03:17.736Z,97456.28
2017-07-18T01:08:04.401Z,97452.91
2017-07-18T01:12:51.022Z,97449.41
2017-07-18T01:17:37.711Z,97450.90
2017-07-18T01:22:24.320Z,97447.95
2017-07-18T01:27:10.962Z,97445.45
2017-07-18T01:31:57.631Z,97428.45
2017-07-18T01:36:44.256Z,97437.02
2017-07-18T01:41:30.922Z,97427.11
2017-07-18T01:46:17.700Z,97437.59
2017-07-18T01:51:04.338Z,97434.13
2017-07-18T01:55:50.940Z,97437.98
2017-07-18T02:00:37.762Z,97438.41
2017-07-18T02:05:24.482Z,97433.03
2017-07-18T02:10:11.149Z,97431.13
2017-07-18T02:14:57.861Z,97442.93
2017-07-18T02:19:44.539Z,97429.95
2017-07-18T02:24:31.986Z,97425.69
2017-07-18T02:29:18.609Z,97421.95
2017-07-18T02:34:05.269Z,97421.10
2017-07-18T02:38:51.934Z,97423.61
2017-07-18T02:43:38.629Z,97422.02
2017-07-18T02:48:25.307Z,97428.08
2017-07-18T02:53:11.921Z,97416.70
2017-07-18T02:57:58.554Z,97413.61
2017-07-18T03:02:45.257Z,97418.85
2017-07-18T03:07:32.026Z,97414.79
2017-07-18T03:12:18.762Z,97418.40
2017-07-18T03:17:05.447Z,97414.36
2017-07-18T03:21:52.136Z,97421.12
2017-07-18T03:26:38.777Z,97419.67
2017-07-18T03:31:25.402Z,97422.95
2017-07-18T03:36:12.057Z,97420.55
2017-07-18T03:40:58.750Z,97426.67
2017-07-18T03:45:45.363Z,97423.36
2017-07-18T03:50:32.087Z,97424.30
2017-07-18T03:55:18.745Z,97426.73
2017-07-18T04:00:12.265Z,97430.34
2017-07-18T04:04:59.191Z,97431.86
2017-07-18T04:09:45.839Z,97423.47
2017-07-18T04:14:32.517Z,97429.55
2017-07-18T04:19:19.908Z,97426.59
2017-07-18T04:24:06.596Z,97420.77
2017-07-18T04:28:53.279Z,97422.81
2017-07-18T04:33:39.899Z,97417.67
2017-07-18T04:38:27.029Z,97423.45
2017-07-18T04:43:13.681Z,97424.48
2017-07-18T04:48:00.342Z,97421.12
2017-07-18T04:52:46.987Z,97427.84
2017-07-18T04:57:33.759Z,97421.91
2017-07-18T05:02:20.435Z,97429.59
2017-07-18T05:07:07.133Z,97421.95
2017-07-18T05:11:53.809Z,97417.47
2017-07-18T05:16:40.460Z,97422.56
2017-07-18T05:21:27.237Z,97428.44
2017-07-18T05:26:14.915Z,97429.98
2017-07-18T05:31:01.598Z,97425.51
2017-07-18T05:35:48.941Z,97427.74
2017-07-18T05:40:35.611Z,97425.11
2017-07-18T05:45:22.283Z,97428.64
2017-07-18T05:50:09.713Z,97422.23
2017-07-18T05:54:56.357Z,97417.03
2017-07-18T05:59:43.001Z,97417.12
2017-07-18T06:04:29.622Z,97417.21
2017-07-18T06:09:16.369Z,97416.75
2017-07-18T06:14:03.098Z,97412.77
2017-07-18T06:18:49.858Z,97411.59
2017-07-18T06:23:37.268Z,97419.53
2017-07-18T06:28:23.924Z,97414.66
2017-07-18T06:33:10.591Z,97415.45
2017-07-18T06:37:57.268Z,97416.92
2017-07-18T06:42:43.933Z,97410.73
2017-07-18T06:47:30.555Z,97401.15
2017-07-18T06:52:17.202Z,97398.58
2017-07-18T06:57:04.639Z,97407.28
2017-07-18T07:01:51.374Z,97401.94
2017-07-18T07:06:38.832Z,97395.77
2017-07-18T07:11:25.465Z,97393.67
2017-07-18T07:16:12.097Z,97398.86
2017-07-18T07:20:58.714Z,97389.30
2017-07-18T07:25:45.410Z,97384.25
2017-07-18T07:30:32.115Z,97384.30
2017-07-18T07:35:19.481Z,97381.44
2017-07-18T07:40:06.182Z,97386.22
2017-07-18T07:44:52.852Z,97388.95
2017-07-18T07:49:39.514Z,97387.31
2017-07-18T07:54:26.937Z,97382.66
2017-07-18T07:59:13.597Z,97381.38
2017-07-18T08:04:00.311Z,97382.73
2017-07-18T08:08:46.957Z,97369.94
2017-07-18T08:13:33.652Z,97365.80
2017-07-18T08:18:20.366Z,97372.72
2017-07-18T08:23:06.998Z,97369.42
2017-07-18T08:27:53.651Z,97372.05
2017-07-18T08:32:40.293Z,97363.69
2017-07-18T08:37:26.938Z,97362.00
2017-07-18T08:42:14.375Z,97361.06
2017-07-18T08:47:01.166Z,97355.58
2017-07-18T08:51:47.903Z,97353.80
2017-07-18T08:56:34.600Z,97354.08
2017-07-18T09:01:21.330Z,97346.97
2017-07-18T09:06:07.984Z,97346.16
2017-07-18T09:10:55.390Z,97343.79
2017-07-18T09:15:42.062Z,97338.03
2017-07-18T09:20:28.725Z,97332.38
2017-07-18T09:25:15.366Z,97325.28
2017-07-18T09:30:02.050Z,97331.42
2017-07-18T09:34:48.668Z,97326.92
2017-07-18T09:39:35.269Z,97324.62
2017-07-18T09:44:21.922Z,97322.46
2017-07-18T09:49:08.561Z,97318.22
2017-07-18T09:53:55.179Z,97306.62
2017-07-18T09:58:41.845Z,97312.48
2017-07-18T10:03:28.657Z,97308.58
2017-07-18T10:08:16.075Z,97309.70
2017-07-18T10:13:02.737Z,97307.95
2017-07-18T10:17:49.673Z,97302.33
2017-07-18T10:22:36.315Z,97300.88
2017-07-18T10:27:22.933Z,97303.81
2017-07-18T10:32:09.731Z,97295.87
2017-07-18T10:36:56.417Z,97298.03
2017-07-18T10:41:43.902Z,97295.08
2017-07-18T10:46:30.587Z,97293.52
2017-07-18T10:51:18.048Z,97283.80
2017-07-18T10:56:04.709Z,97274.59
2017-07-18T11:00:51.378Z,97276.51
2017-07-18T11:05:38.157Z,97271.78
2017-07-18T11:10:24.823Z,97256.77
2017-07-18T11:15:11.546Z,97259.33
2017-07-18T11:19:58.269Z,97257.98
2017-07-18T11:24:44.961Z,97250.86
2017-07-18T11:29:31.599Z,97241.75
2017-07-18T11:34:18.983Z,97242.15
2017-07-18T11:39:05.710Z,97240.32
2017-07-18T11:43:52.439Z,97231.06
2017-07-18T11:48:39.175Z,97234.46
2017-07-18T11:53:25.865Z,97231.40
2017-07-18T11:58:12.611Z,97220.22
2017-07-18T12:02:59.436Z,97215.25
2017-07-18T12:07:46.184Z,97201.16
2017-07-18T12:12:33.557Z,97214.32
2017-07-18T12:17:20.188Z,97202.91
2017-07-18T12:22:06.827Z,97203.03
2017-07-18T12:26:53.969Z,97197.39
2017-07-18T12:31:40.761Z,97194.23
2017-07-18T12:36:27.470Z,97188.77
2017-07-18T12:41:14.221Z,97181.70
2017-07-18T12:46:00.993Z,97179.27
2017-07-18T12:50:48.425Z,97177.52
2017-07-18T12:55:35.929Z,97171.61
2017-07-18T13:00:22.653Z,97164.20
2017-07-18T13:05:09.353Z,97159.02
2017-07-18T13:09:56.122Z,97155.00
2017-07-18T13:14:42.849Z,97146.12
2017-07-18T13:19:29.486Z,97137.92
2017-07-18T13:24:18.022Z,97134.66
2017-07-18T13:29:04.724Z,97133.00
2017-07-18T13:33:51.425Z,97130.56
2017-07-18T13:38:38.107Z,97125.09
2017-07-18T13:43:25.756Z,97118.90
2017-07-18T13:48:13.203Z,97123.53
2017-07-18T13:53:00.203Z,97108.95
2017-07-18T13:57:46.834Z,97103.30
2017-07-18T14:02:33.518Z,97100.64
2017-07-18T14:07:20.186Z,97090.14
2017-07-18T14:12:06.839Z,97084.72
2017-07-18T14:16:53.747Z,97078.25
2017-07-18T14:21:40.392Z,97069.66
2017-07-18T14:26:27.027Z,97060.91
2017-07-18T14:31:13.702Z,97060.83
2017-07-18T14:36:00.385Z,97048.78
2017-07-18T14:40:47.055Z,97046.55
2017-07-18T14:45:33.689Z,97046.52
2017-07-18T14:50:20.352Z,97044.75
2017-07-18T14:55:07.004Z,97046.63
2017-07-18T14:59:53.707Z,97039.99
2017-07-18T15:04:41.150Z,97044.16
2017-07-18T15:09:28.631Z,97055.80
2017-07-18T15:14:15.287Z,97053.30
2017-07-18T15:19:02.047Z,97044.06
2017-07-18T15:23:49.512Z,97040.80
2017-07-18T15:28:36.148Z,97041.28
2017-07-18T15:33:22.803Z,97044.18
2017-07-18T15:38:09.441Z,97031.91
2017-07-18T15:42:56.930Z,97028.27
2017-07-18T15:47:43.598Z,97018.63
2017-07-18T15:52:30.961Z,97007.75
2017-07-18T15:57:17.640Z,97010.92
2017-07-18T16:02:04.296Z,97001.90
2017-07-18T16:06:50.955Z,96995.56
2017-07-18T16:11:37.712Z,97006.30
2017-07-18T16:16:24.479Z,97007.22
2017-07-18T16:21:11.110Z,97008.31
2017-07-18T16:25:57.786Z,97007.89
2017-07-18T16:30:45.204Z,97007.47
2017-07-18T16:35:31.994Z,97002.71
2017-07-18T16:40:18.674Z,97009.55
2017-07-18T16:45:06.174Z,97013.30
2017-07-18T16:49:52.879Z,97010.44
2017-07-18T16:54:40.633Z,97002.81
2017-07-18T16:59:27.263Z,96998.66
2017-07-18T17:04:13.952Z,97012.61
2017-07-18T17:09:00.603Z,97009.12
2017-07-18T17:13:47.300Z,97016.62
2017-07-18T17:18:34.371Z,97017.50
2017-07-18T17:23:20.953Z,97013.14
2017-07-18T17:28:07.625Z,97013.87
2017-07-18T17:32:54.346Z,97010.77
2017-07-18T17:37:40.997Z,97011.86
2017-07-18T17:42:27.702Z,97018.03
2017-07-18T17:47:15.094Z,97008.41
2017-07-18T17:52:02.490Z,97004.33
2017-07-18T17:56:56.241Z,97005.44
2017-07-18T18:01:42.872Z,97008.32
2017-07-18T18:06:30.288Z,97014.02
2017-07-18T18:11:17.062Z,97015.02
2017-07-18T18:16:03.742Z,97022.73
2017-07-18T18:20:50.551Z,97023.41
2017-07-18T18:25:37.292Z,97019.54
2017-07-18T18:30:24.026Z,97010.09
2017-07-18T18:35:11.407Z,97011.86
2017-07-18T18:39:58.037Z,97012.74
2017-07-18T18:44:44.745Z,97012.19
2017-07-18T18:49:31.421Z,97013.76
2017-07-18T18:54:18.885Z,97014.00
2017-07-18T18:59:05.615Z,97016.80
2017-07-18T19:03:52.375Z,97010.20
2017-07-18T19:08:39.076Z,97011.52
2017-07-18T19:13:25.804Z,97012.27
2017-07-18T19:18:12.503Z,97010.26
2017-07-18T19:22:59.194Z,97012.13
2017-07-18T19:27:46.584Z,97022.89
2017-07-18T19:32:33.303Z,97025.44
2017-07-18T19:37:20.379Z,97024.66
2017-07-18T19:42:07.972Z,97021.06
2017-07-18T19:46:54.680Z,97036.56
2017-07-18T19:51:41.391Z,97034.54
2017-07-18T19:56:28.338Z,97041.42
2017-07-18T20:01:15.011Z,97034.02
2017-07-18T20:06:02.060Z,97039.14
2017-07-18T20:10:49.500Z,97038.44
2017-07-18T20:15:36.169Z,97052.34
2017-07-18T20:20:22.898Z,97058.70
2017-07-18T20:25:09.594Z,97055.72
2017-07-18T20:29:56.232Z,97058.24
2017-07-18T20:34:42.903Z,97062.36
2017-07-18T20:39:30.324Z,97061.20
2017-07-18T20:44:17.072Z,97062.77
2017-07-18T20:49:03.706Z,97059.19
2017-07-18T20:53:50.424Z,97053.83
2017-07-18T20:58:37.081Z,97052.58
2017-07-18T21:03:24.341Z,97044.64
2017-07-18T21:08:10.992Z,97043.55
2017-07-18T21:12:57.662Z,97038.94
2017-07-18T21:17:44.276Z,97044.30
2017-07-18T21:22:31.004Z,97043.47
2017-07-18T21:27:17.645Z,97052.09
2017-07-18T21:32:05.015Z,97047.25
2017-07-18T21:36:51.694Z,97058.38
2017-07-18T21:41:38.327Z,97058.78
2017-07-18T21:46:25.717Z,97064.75
2017-07-18T21:51:12.344Z,97059.28
2017-07-18T21:55:58.969Z,97069.15
2017-07-18T22:00:45.593Z,97073.06
2017-07-18T22:05:32.238Z,97072.53
2017-07-18T22:10:19.043Z,97068.56
2017-07-18T22:15:05.787Z,97075.05
2017-07-18T22:19:52.438Z,97076.30
2017-07-18T22:24:39.081Z,97067.29
2017-07-18T22:29:25.705Z,97052.72
2017-07-18T22:34:12.351Z,97056.78
2017-07-18T22:38:58.993Z,97042.78
2017-07-18T22:43:45.634Z,97037.84
2017-07-18T22:48:33.496Z,97035.96
2017-07-18T22:53:20.163Z,97029.86
2017-07-18T22:58:06.812Z,97029.63
2017-07-18T23:02:54.188Z,97023.92
2017-07-18T23:07:40.792Z,97022.39
2017-07-18T23:12:27.475Z,97017.94
2017-07-18T23:17:14.430Z,97013.50
2017-07-18T23:22:01.048Z,97012.70
2017-07-18T23:26:47.673Z,97000.56
2017-07-18T23:31:34.294Z,97008.73
2017-07-18T23:36:20.915Z,97000.75
2017-07-18T23:41:07.561Z,97001.36
2017-07-18T23:45:54.525Z,97007.85
2017-07-18T23:50:41.146Z,97017.01
2017-07-18T23:55:27.762Z,97015.27
